sensor_id;sensor_type;location;lat;lon;timestamp;P1;durP1;ratioP1;P2;durP2;ratioP2
36547;SDS011;22551;52.206;4.856;2023-04-16T00:02:19;10.10;;;2.38;;
36547;SDS011;22551;52.206;4.856;2023-04-16T00:07:21;12.32;;;3.47;;
36547;SDS011;22551;52.206;4.856;2023-04-16T00:12:23;13.63;;;2.60;;
36547;SDS011;22551;52.206;4.856;2023-04-16T00:17:27;9.98;;;2.70;;
36547;SDS011;22551;52.206;4.856;2023-04-16T00:22:29;5.00;;;3.10;;
36547;SDS011;22551;52.206;4.856;2023-04-16T00:27:31;12.80;;;3.53;;
36547;SDS011;22551;52.206;4.856;2023-04-16T00:32:36;12.85;;;3.22;;
36547;SDS011;22551;52.206;4.856;2023-04-16T00:37:38;12.82;;;3.67;;
36547;SDS011;22551;52.206;4.856;2023-04-16T00:42:41;12.68;;;3.30;;
36547;SDS011;22551;52.206;4.856;2023-04-16T00:47:44;7.60;;;3.40;;
36547;SDS011;22551;52.206;4.856;2023-04-16T00:52:46;6.82;;;3.25;;
36547;SDS011;22551;52.206;4.856;2023-04-16T00:57:49;6.03;;;3.70;;
36547;SDS011;22551;52.206;4.856;2023-04-16T01:02:53;13.73;;;3.72;;
36547;SDS011;22551;52.206;4.856;2023-04-16T01:07:57;8.95;;;2.72;;
36547;SDS011;22551;52.206;4.856;2023-04-16T01:13:00;9.82;;;3.97;;
36547;SDS011;22551;52.206;4.856;2023-04-16T01:18:11;8.25;;;3.90;;
36547;SDS011;22551;52.206;4.856;2023-04-16T01:23:17;6.72;;;3.05;;
36547;SDS011;22551;52.206;4.856;2023-04-16T01:28:19;10.17;;;3.13;;
36547;SDS011;22551;52.206;4.856;2023-04-16T01:33:22;6.97;;;3.10;;
36547;SDS011;22551;52.206;4.856;2023-04-16T01:38:26;7.03;;;3.53;;
36547;SDS011;22551;52.206;4.856;2023-04-16T01:43:28;13.27;;;4.38;;
36547;SDS011;22551;52.206;4.856;2023-04-16T01:48:30;7.88;;;3.65;;
36547;SDS011;22551;52.206;4.856;2023-04-16T01:53:34;10.82;;;4.07;;
36547;SDS011;22551;52.206;4.856;2023-04-16T01:58:37;16.42;;;5.07;;
36547;SDS011;22551;52.206;4.856;2023-04-16T02:03:40;16.58;;;4.47;;
36547;SDS011;22551;52.206;4.856;2023-04-16T02:08:44;13.18;;;4.70;;
36547;SDS011;22551;52.206;4.856;2023-04-16T02:13:46;10.20;;;4.15;;
36547;SDS011;22551;52.206;4.856;2023-04-16T02:18:48;7.63;;;4.57;;
36547;SDS011;22551;52.206;4.856;2023-04-16T02:23:52;10.95;;;4.47;;
36547;SDS011;22551;52.206;4.856;2023-04-16T02:28:54;15.18;;;5.35;;
36547;SDS011;22551;52.206;4.856;2023-04-16T02:33:57;11.63;;;4.82;;
36547;SDS011;22551;52.206;4.856;2023-04-16T02:39:02;14.18;;;4.75;;
36547;SDS011;22551;52.206;4.856;2023-04-16T02:44:04;13.55;;;4.50;;
36547;SDS011;22551;52.206;4.856;2023-04-16T02:49:07;13.23;;;5.28;;
36547;SDS011;22551;52.206;4.856;2023-04-16T02:54:11;17.10;;;4.78;;
36547;SDS011;22551;52.206;4.856;2023-04-16T02:59:15;12.40;;;3.88;;
36547;SDS011;22551;52.206;4.856;2023-04-16T03:04:17;11.43;;;3.75;;
36547;SDS011;22551;52.206;4.856;2023-04-16T03:09:24;18.65;;;4.43;;
36547;SDS011;22551;52.206;4.856;2023-04-16T03:14:26;12.82;;;3.85;;
36547;SDS011;22551;52.206;4.856;2023-04-16T03:19:28;10.45;;;4.43;;
36547;SDS011;22551;52.206;4.856;2023-04-16T03:24:31;20.10;;;5.47;;
36547;SDS011;22551;52.206;4.856;2023-04-16T03:29:39;10.68;;;3.92;;
36547;SDS011;22551;52.206;4.856;2023-04-16T03:34:41;9.90;;;3.67;;
36547;SDS011;22551;52.206;4.856;2023-04-16T03:39:44;15.73;;;4.13;;
36547;SDS011;22551;52.206;4.856;2023-04-16T03:44:47;15.65;;;4.47;;
36547;SDS011;22551;52.206;4.856;2023-04-16T03:49:49;9.05;;;3.90;;
36547;SDS011;22551;52.206;4.856;2023-04-16T03:54:53;18.10;;;4.75;;
36547;SDS011;22551;52.206;4.856;2023-04-16T03:59:58;18.48;;;5.75;;
36547;SDS011;22551;52.206;4.856;2023-04-16T04:05:00;11.35;;;5.90;;
36547;SDS011;22551;52.206;4.856;2023-04-16T04:10:04;16.65;;;6.20;;
36547;SDS011;22551;52.206;4.856;2023-04-16T04:15:08;15.38;;;5.65;;
36547;SDS011;22551;52.206;4.856;2023-04-16T04:20:11;18.75;;;5.97;;
36547;SDS011;22551;52.206;4.856;2023-04-16T04:25:15;25.80;;;6.68;;
36547;SDS011;22551;52.206;4.856;2023-04-16T04:30:18;19.40;;;7.20;;
36547;SDS011;22551;52.206;4.856;2023-04-16T04:35:20;22.70;;;6.00;;
36547;SDS011;22551;52.206;4.856;2023-04-16T04:40:24;23.60;;;6.50;;
36547;SDS011;22551;52.206;4.856;2023-04-16T04:45:26;17.00;;;5.97;;
36547;SDS011;22551;52.206;4.856;2023-04-16T04:50:28;28.60;;;9.70;;
36547;SDS011;22551;52.206;4.856;2023-04-16T04:55:33;18.05;;;7.40;;
36547;SDS011;22551;52.206;4.856;2023-04-16T05:00:37;22.70;;;7.30;;
36547;SDS011;22551;52.206;4.856;2023-04-16T05:05:39;20.23;;;7.75;;
36547;SDS011;22551;52.206;4.856;2023-04-16T05:10:43;25.55;;;7.78;;
36547;SDS011;22551;52.206;4.856;2023-04-16T05:15:45;20.85;;;8.50;;
36547;SDS011;22551;52.206;4.856;2023-04-16T05:20:47;20.20;;;7.43;;
36547;SDS011;22551;52.206;4.856;2023-04-16T05:25:51;16.38;;;6.93;;
36547;SDS011;22551;52.206;4.856;2023-04-16T05:30:53;19.17;;;6.90;;
36547;SDS011;22551;52.206;4.856;2023-04-16T05:35:55;24.27;;;7.75;;
36547;SDS011;22551;52.206;4.856;2023-04-16T05:41:00;26.40;;;8.20;;
36547;SDS011;22551;52.206;4.856;2023-04-16T05:46:03;24.70;;;7.82;;
36547;SDS011;22551;52.206;4.856;2023-04-16T05:51:05;19.67;;;7.55;;
36547;SDS011;22551;52.206;4.856;2023-04-16T05:56:11;18.88;;;7.10;;
36547;SDS011;22551;52.206;4.856;2023-04-16T06:01:13;16.20;;;6.95;;
36547;SDS011;22551;52.206;4.856;2023-04-16T06:06:16;21.75;;;7.65;;
36547;SDS011;22551;52.206;4.856;2023-04-16T06:11:20;21.90;;;8.10;;
36547;SDS011;22551;52.206;4.856;2023-04-16T06:16:22;23.58;;;6.82;;
36547;SDS011;22551;52.206;4.856;2023-04-16T06:21:25;26.35;;;7.53;;
36547;SDS011;22551;52.206;4.856;2023-04-16T06:26:28;22.75;;;8.02;;
36547;SDS011;22551;52.206;4.856;2023-04-16T06:31:32;19.67;;;7.45;;
36547;SDS011;22551;52.206;4.856;2023-04-16T06:36:34;26.48;;;8.45;;
36547;SDS011;22551;52.206;4.856;2023-04-16T06:41:38;21.38;;;8.20;;
36547;SDS011;22551;52.206;4.856;2023-04-16T06:46:40;20.95;;;7.90;;
36547;SDS011;22551;52.206;4.856;2023-04-16T06:51:42;26.38;;;8.40;;
36547;SDS011;22551;52.206;4.856;2023-04-16T06:56:46;18.08;;;7.80;;
36547;SDS011;22551;52.206;4.856;2023-04-16T07:01:50;21.52;;;7.88;;
36547;SDS011;22551;52.206;4.856;2023-04-16T07:06:52;23.80;;;7.65;;
36547;SDS011;22551;52.206;4.856;2023-04-16T07:11:56;23.55;;;7.38;;
36547;SDS011;22551;52.206;4.856;2023-04-16T07:16:58;20.38;;;7.68;;
36547;SDS011;22551;52.206;4.856;2023-04-16T07:22:01;20.30;;;7.55;;
36547;SDS011;22551;52.206;4.856;2023-04-16T07:27:05;14.52;;;6.25;;
36547;SDS011;22551;52.206;4.856;2023-04-16T07:32:07;18.95;;;7.60;;
36547;SDS011;22551;52.206;4.856;2023-04-16T07:37:09;23.33;;;8.55;;
36547;SDS011;22551;52.206;4.856;2023-04-16T07:42:13;21.88;;;8.23;;
36547;SDS011;22551;52.206;4.856;2023-04-16T07:47:15;21.05;;;8.38;;
36547;SDS011;22551;52.206;4.856;2023-04-16T07:52:17;24.05;;;8.27;;
36547;SDS011;22551;52.206;4.856;2023-04-16T07:57:21;23.25;;;7.63;;
36547;SDS011;22551;52.206;4.856;2023-04-16T08:02:23;30.52;;;8.82;;
36547;SDS011;22551;52.206;4.856;2023-04-16T08:07:26;21.58;;;7.25;;
36547;SDS011;22551;52.206;4.856;2023-04-16T08:12:30;19.70;;;7.82;;
36547;SDS011;22551;52.206;4.856;2023-04-16T08:17:32;17.15;;;7.65;;
36547;SDS011;22551;52.206;4.856;2023-04-16T08:22:34;15.93;;;6.85;;
36547;SDS011;22551;52.206;4.856;2023-04-16T08:27:38;20.42;;;7.78;;
36547;SDS011;22551;52.206;4.856;2023-04-16T08:32:40;24.17;;;8.00;;
36547;SDS011;22551;52.206;4.856;2023-04-16T08:37:43;13.98;;;6.93;;
36547;SDS011;22551;52.206;4.856;2023-04-16T08:42:47;20.30;;;7.60;;
36547;SDS011;22551;52.206;4.856;2023-04-16T08:47:56;20.63;;;7.68;;
36547;SDS011;22551;52.206;4.856;2023-04-16T08:53:02;16.58;;;6.85;;
36547;SDS011;22551;52.206;4.856;2023-04-16T08:58:11;18.58;;;7.50;;
36547;SDS011;22551;52.206;4.856;2023-04-16T09:03:15;12.32;;;5.72;;
36547;SDS011;22551;52.206;4.856;2023-04-16T09:13:25;19.92;;;8.50;;
36547;SDS011;22551;52.206;4.856;2023-04-16T09:18:27;23.55;;;8.05;;
36547;SDS011;22551;52.206;4.856;2023-04-16T09:23:30;18.00;;;8.38;;
36547;SDS011;22551;52.206;4.856;2023-04-16T09:28:42;23.90;;;8.65;;
36547;SDS011;22551;52.206;4.856;2023-04-16T09:33:59;20.85;;;7.28;;
36547;SDS011;22551;52.206;4.856;2023-04-16T09:39:03;18.77;;;7.47;;
36547;SDS011;22551;52.206;4.856;2023-04-16T09:44:07;18.83;;;7.07;;
36547;SDS011;22551;52.206;4.856;2023-04-16T09:49:09;20.00;;;7.10;;
36547;SDS011;22551;52.206;4.856;2023-04-16T09:54:17;23.63;;;7.50;;
36547;SDS011;22551;52.206;4.856;2023-04-16T09:59:24;20.38;;;8.75;;
36547;SDS011;22551;52.206;4.856;2023-04-16T10:04:31;18.10;;;6.75;;
36547;SDS011;22551;52.206;4.856;2023-04-16T10:09:47;19.45;;;7.18;;
36547;SDS011;22551;52.206;4.856;2023-04-16T10:14:53;16.40;;;7.68;;
36547;SDS011;22551;52.206;4.856;2023-04-16T10:19:55;22.00;;;8.50;;
36547;SDS011;22551;52.206;4.856;2023-04-16T10:25:01;17.70;;;7.72;;
36547;SDS011;22551;52.206;4.856;2023-04-16T10:30:07;15.57;;;7.05;;
36547;SDS011;22551;52.206;4.856;2023-04-16T10:35:13;22.98;;;8.93;;
36547;SDS011;22551;52.206;4.856;2023-04-16T10:40:22;22.45;;;8.25;;
36547;SDS011;22551;52.206;4.856;2023-04-16T10:45:29;23.50;;;9.05;;
36547;SDS011;22551;52.206;4.856;2023-04-16T10:50:33;26.02;;;8.98;;
36547;SDS011;22551;52.206;4.856;2023-04-16T10:55:37;20.48;;;8.52;;
36547;SDS011;22551;52.206;4.856;2023-04-16T11:00:49;13.73;;;8.13;;
36547;SDS011;22551;52.206;4.856;2023-04-16T11:05:52;19.83;;;8.85;;
36547;SDS011;22551;52.206;4.856;2023-04-16T11:10:56;22.15;;;8.55;;
36547;SDS011;22551;52.206;4.856;2023-04-16T11:16:03;18.08;;;8.85;;
36547;SDS011;22551;52.206;4.856;2023-04-16T11:21:09;15.73;;;7.03;;
36547;SDS011;22551;52.206;4.856;2023-04-16T11:26:22;15.50;;;7.35;;
36547;SDS011;22551;52.206;4.856;2023-04-16T11:31:28;17.30;;;6.88;;
36547;SDS011;22551;52.206;4.856;2023-04-16T11:36:41;18.90;;;7.50;;
36547;SDS011;22551;52.206;4.856;2023-04-16T11:41:44;19.77;;;8.40;;
36547;SDS011;22551;52.206;4.856;2023-04-16T11:46:50;18.75;;;8.57;;
36547;SDS011;22551;52.206;4.856;2023-04-16T11:51:53;17.27;;;7.82;;
36547;SDS011;22551;52.206;4.856;2023-04-16T11:56:57;17.98;;;7.75;;
36547;SDS011;22551;52.206;4.856;2023-04-16T12:02:00;18.60;;;7.63;;
36547;SDS011;22551;52.206;4.856;2023-04-16T12:07:06;16.40;;;6.95;;
36547;SDS011;22551;52.206;4.856;2023-04-16T12:12:24;15.57;;;7.68;;
36547;SDS011;22551;52.206;4.856;2023-04-16T12:17:33;14.38;;;7.32;;
36547;SDS011;22551;52.206;4.856;2023-04-16T12:22:37;14.35;;;7.60;;
36547;SDS011;22551;52.206;4.856;2023-04-16T12:27:41;20.87;;;8.43;;
36547;SDS011;22551;52.206;4.856;2023-04-16T12:32:48;16.73;;;6.88;;
36547;SDS011;22551;52.206;4.856;2023-04-16T12:37:53;14.68;;;7.20;;
36547;SDS011;22551;52.206;4.856;2023-04-16T12:42:55;20.02;;;7.88;;
36547;SDS011;22551;52.206;4.856;2023-04-16T12:47:59;20.77;;;7.78;;
36547;SDS011;22551;52.206;4.856;2023-04-16T12:53:02;21.45;;;8.55;;
36547;SDS011;22551;52.206;4.856;2023-04-16T12:58:07;24.02;;;8.52;;
36547;SDS011;22551;52.206;4.856;2023-04-16T13:03:11;17.23;;;7.82;;
36547;SDS011;22551;52.206;4.856;2023-04-16T13:08:15;26.30;;;9.20;;
36547;SDS011;22551;52.206;4.856;2023-04-16T13:13:17;17.95;;;8.35;;
36547;SDS011;22551;52.206;4.856;2023-04-16T13:18:21;18.83;;;8.48;;
36547;SDS011;22551;52.206;4.856;2023-04-16T13:23:23;15.60;;;7.72;;
36547;SDS011;22551;52.206;4.856;2023-04-16T13:28:26;24.30;;;8.70;;
36547;SDS011;22551;52.206;4.856;2023-04-16T13:33:30;18.45;;;8.77;;
36547;SDS011;22551;52.206;4.856;2023-04-16T13:38:32;19.40;;;8.35;;
36547;SDS011;22551;52.206;4.856;2023-04-16T13:43:34;18.67;;;8.38;;
36547;SDS011;22551;52.206;4.856;2023-04-16T13:48:39;20.30;;;7.75;;
36547;SDS011;22551;52.206;4.856;2023-04-16T13:53:41;13.73;;;7.03;;
36547;SDS011;22551;52.206;4.856;2023-04-16T13:58:44;15.70;;;7.72;;
36547;SDS011;22551;52.206;4.856;2023-04-16T14:03:48;17.17;;;7.10;;
36547;SDS011;22551;52.206;4.856;2023-04-16T14:08:50;20.30;;;7.80;;
36547;SDS011;22551;52.206;4.856;2023-04-16T14:13:52;15.82;;;6.78;;
36547;SDS011;22551;52.206;4.856;2023-04-16T14:18:59;24.50;;;9.27;;
36547;SDS011;22551;52.206;4.856;2023-04-16T14:24:01;23.50;;;7.47;;
36547;SDS011;22551;52.206;4.856;2023-04-16T14:29:04;16.83;;;7.68;;
36547;SDS011;22551;52.206;4.856;2023-04-16T14:34:08;15.23;;;7.28;;
36547;SDS011;22551;52.206;4.856;2023-04-16T14:39:10;15.63;;;7.50;;
36547;SDS011;22551;52.206;4.856;2023-04-16T14:44:12;16.67;;;6.90;;
36547;SDS011;22551;52.206;4.856;2023-04-16T14:49:16;21.38;;;7.28;;
36547;SDS011;22551;52.206;4.856;2023-04-16T14:54:18;25.90;;;8.60;;
36547;SDS011;22551;52.206;4.856;2023-04-16T14:59:21;27.90;;;9.18;;
36547;SDS011;22551;52.206;4.856;2023-04-16T15:04:25;24.77;;;8.02;;
36547;SDS011;22551;52.206;4.856;2023-04-16T15:09:28;19.00;;;9.68;;
36547;SDS011;22551;52.206;4.856;2023-04-16T15:14:31;29.58;;;9.65;;
36547;SDS011;22551;52.206;4.856;2023-04-16T15:19:35;31.40;;;10.35;;
36547;SDS011;22551;52.206;4.856;2023-04-16T15:24:37;27.38;;;9.93;;
36547;SDS011;22551;52.206;4.856;2023-04-16T15:29:40;25.40;;;9.90;;
36547;SDS011;22551;52.206;4.856;2023-04-16T15:34:45;23.58;;;10.23;;
36547;SDS011;22551;52.206;4.856;2023-04-16T15:44:51;22.60;;;10.05;;
36547;SDS011;22551;52.206;4.856;2023-04-16T15:49:54;26.55;;;9.20;;
36547;SDS011;22551;52.206;4.856;2023-04-16T15:54:58;18.33;;;8.98;;
36547;SDS011;22551;52.206;4.856;2023-04-16T16:00:01;27.43;;;10.07;;
36547;SDS011;22551;52.206;4.856;2023-04-16T16:05:13;26.92;;;9.68;;
36547;SDS011;22551;52.206;4.856;2023-04-16T16:10:16;23.52;;;8.77;;
36547;SDS011;22551;52.206;4.856;2023-04-16T16:15:20;19.10;;;8.95;;
36547;SDS011;22551;52.206;4.856;2023-04-16T16:20:24;20.67;;;9.15;;
36547;SDS011;22551;52.206;4.856;2023-04-16T16:25:27;33.08;;;9.55;;
36547;SDS011;22551;52.206;4.856;2023-04-16T16:30:30;19.55;;;9.13;;
36547;SDS011;22551;52.206;4.856;2023-04-16T16:35:34;21.77;;;9.27;;
36547;SDS011;22551;52.206;4.856;2023-04-16T16:40:38;21.35;;;9.38;;
36547;SDS011;22551;52.206;4.856;2023-04-16T16:45:40;18.50;;;9.15;;
36547;SDS011;22551;52.206;4.856;2023-04-16T16:50:44;21.35;;;9.23;;
36547;SDS011;22551;52.206;4.856;2023-04-16T16:55:46;20.08;;;10.35;;
36547;SDS011;22551;52.206;4.856;2023-04-16T17:00:49;25.10;;;10.68;;
36547;SDS011;22551;52.206;4.856;2023-04-16T17:05:52;22.70;;;10.13;;
36547;SDS011;22551;52.206;4.856;2023-04-16T17:10:55;29.30;;;9.98;;
36547;SDS011;22551;52.206;4.856;2023-04-16T17:15:57;21.40;;;8.63;;
36547;SDS011;22551;52.206;4.856;2023-04-16T17:21:02;19.98;;;9.93;;
36547;SDS011;22551;52.206;4.856;2023-04-16T17:26:05;23.20;;;10.55;;
36547;SDS011;22551;52.206;4.856;2023-04-16T17:31:08;20.80;;;10.38;;
36547;SDS011;22551;52.206;4.856;2023-04-16T17:36:13;33.38;;;11.85;;
36547;SDS011;22551;52.206;4.856;2023-04-16T17:41:15;26.45;;;11.02;;
36547;SDS011;22551;52.206;4.856;2023-04-16T17:46:18;34.05;;;11.45;;
36547;SDS011;22551;52.206;4.856;2023-04-16T17:51:22;24.70;;;11.07;;
36547;SDS011;22551;52.206;4.856;2023-04-16T17:56:25;24.48;;;11.85;;
36547;SDS011;22551;52.206;4.856;2023-04-16T18:01:27;32.38;;;12.18;;
36547;SDS011;22551;52.206;4.856;2023-04-16T18:06:31;28.67;;;11.95;;
36547;SDS011;22551;52.206;4.856;2023-04-16T18:11:33;29.65;;;12.27;;
36547;SDS011;22551;52.206;4.856;2023-04-16T18:16:36;26.02;;;12.25;;
36547;SDS011;22551;52.206;4.856;2023-04-16T18:21:40;24.77;;;11.63;;
36547;SDS011;22551;52.206;4.856;2023-04-16T18:26:43;29.15;;;11.32;;
36547;SDS011;22551;52.206;4.856;2023-04-16T18:31:46;35.60;;;12.75;;
36547;SDS011;22551;52.206;4.856;2023-04-16T18:36:51;35.10;;;13.05;;
36547;SDS011;22551;52.206;4.856;2023-04-16T18:41:53;36.35;;;13.25;;
36547;SDS011;22551;52.206;4.856;2023-04-16T18:46:56;33.83;;;12.88;;
36547;SDS011;22551;52.206;4.856;2023-04-16T18:52:02;31.08;;;12.88;;
36547;SDS011;22551;52.206;4.856;2023-04-16T19:02:07;31.85;;;12.38;;
36547;SDS011;22551;52.206;4.856;2023-04-16T19:07:10;27.00;;;12.25;;
36547;SDS011;22551;52.206;4.856;2023-04-16T19:12:13;32.20;;;13.38;;
36547;SDS011;22551;52.206;4.856;2023-04-16T19:17:15;24.95;;;12.43;;
36547;SDS011;22551;52.206;4.856;2023-04-16T19:22:18;35.55;;;13.20;;
36547;SDS011;22551;52.206;4.856;2023-04-16T19:27:21;33.55;;;12.90;;
36547;SDS011;22551;52.206;4.856;2023-04-16T19:32:25;30.87;;;12.73;;
36547;SDS011;22551;52.206;4.856;2023-04-16T19:37:29;33.22;;;14.48;;
36547;SDS011;22551;52.206;4.856;2023-04-16T19:42:31;30.52;;;14.63;;
36547;SDS011;22551;52.206;4.856;2023-04-16T19:47:33;37.92;;;15.73;;
36547;SDS011;22551;52.206;4.856;2023-04-16T19:52:37;33.50;;;15.77;;
36547;SDS011;22551;52.206;4.856;2023-04-16T19:57:39;36.55;;;15.73;;
36547;SDS011;22551;52.206;4.856;2023-04-16T20:02:42;35.03;;;15.60;;
36547;SDS011;22551;52.206;4.856;2023-04-16T20:07:46;32.25;;;15.45;;
36547;SDS011;22551;52.206;4.856;2023-04-16T20:12:48;34.28;;;15.80;;
36547;SDS011;22551;52.206;4.856;2023-04-16T20:17:51;35.95;;;15.20;;
36547;SDS011;22551;52.206;4.856;2023-04-16T20:22:56;33.03;;;14.60;;
36547;SDS011;22551;52.206;4.856;2023-04-16T20:27:59;34.08;;;14.65;;
36547;SDS011;22551;52.206;4.856;2023-04-16T20:33:01;32.60;;;13.80;;
36547;SDS011;22551;52.206;4.856;2023-04-16T20:38:05;34.10;;;16.08;;
36547;SDS011;22551;52.206;4.856;2023-04-16T20:43:09;35.97;;;16.02;;
36547;SDS011;22551;52.206;4.856;2023-04-16T20:48:13;33.70;;;14.57;;
36547;SDS011;22551;52.206;4.856;2023-04-16T20:53:17;33.60;;;15.02;;
36547;SDS011;22551;52.206;4.856;2023-04-16T20:58:19;33.15;;;14.13;;
36547;SDS011;22551;52.206;4.856;2023-04-16T21:03:22;32.03;;;14.93;;
36547;SDS011;22551;52.206;4.856;2023-04-16T21:08:26;39.38;;;15.95;;
36547;SDS011;22551;52.206;4.856;2023-04-16T21:13:28;34.05;;;15.07;;
36547;SDS011;22551;52.206;4.856;2023-04-16T21:18:31;28.27;;;13.43;;
36547;SDS011;22551;52.206;4.856;2023-04-16T21:23:37;33.75;;;14.23;;
36547;SDS011;22551;52.206;4.856;2023-04-16T21:28:39;30.80;;;13.43;;
36547;SDS011;22551;52.206;4.856;2023-04-16T21:33:43;27.33;;;13.63;;
36547;SDS011;22551;52.206;4.856;2023-04-16T21:38:47;29.35;;;13.77;;
36547;SDS011;22551;52.206;4.856;2023-04-16T21:43:50;31.70;;;13.73;;
36547;SDS011;22551;52.206;4.856;2023-04-16T21:48:52;31.83;;;14.43;;
36547;SDS011;22551;52.206;4.856;2023-04-16T21:53:57;31.55;;;13.50;;
36547;SDS011;22551;52.206;4.856;2023-04-16T22:04:02;32.13;;;14.15;;
36547;SDS011;22551;52.206;4.856;2023-04-16T22:09:07;34.42;;;14.48;;
36547;SDS011;22551;52.206;4.856;2023-04-16T22:14:10;37.67;;;14.15;;
36547;SDS011;22551;52.206;4.856;2023-04-16T22:19:13;36.15;;;15.05;;
36547;SDS011;22551;52.206;4.856;2023-04-16T22:24:18;29.23;;;14.02;;
36547;SDS011;22551;52.206;4.856;2023-04-16T22:29:20;34.58;;;14.05;;
36547;SDS011;22551;52.206;4.856;2023-04-16T22:34:22;31.45;;;13.45;;
36547;SDS011;22551;52.206;4.856;2023-04-16T22:39:26;28.20;;;13.65;;
36547;SDS011;22551;52.206;4.856;2023-04-16T22:44:28;29.75;;;14.10;;
36547;SDS011;22551;52.206;4.856;2023-04-16T22:49:31;29.52;;;12.75;;
36547;SDS011;22551;52.206;4.856;2023-04-16T22:54:35;30.83;;;11.77;;
36547;SDS011;22551;52.206;4.856;2023-04-16T22:59:38;29.92;;;12.70;;
36547;SDS011;22551;52.206;4.856;2023-04-16T23:04:40;36.08;;;13.85;;
36547;SDS011;22551;52.206;4.856;2023-04-16T23:09:43;39.88;;;14.90;;
36547;SDS011;22551;52.206;4.856;2023-04-16T23:14:47;34.63;;;13.63;;
36547;SDS011;22551;52.206;4.856;2023-04-16T23:19:50;31.40;;;11.82;;
36547;SDS011;22551;52.206;4.856;2023-04-16T23:24:54;31.60;;;13.50;;
36547;SDS011;22551;52.206;4.856;2023-04-16T23:29:56;33.38;;;13.73;;
36547;SDS011;22551;52.206;4.856;2023-04-16T23:34:58;34.70;;;14.57;;
36547;SDS011;22551;52.206;4.856;2023-04-16T23:40:02;36.53;;;14.95;;
36547;SDS011;22551;52.206;4.856;2023-04-16T23:45:06;35.85;;;15.88;;
36547;SDS011;22551;52.206;4.856;2023-04-16T23:50:10;32.22;;;14.45;;
36547;SDS011;22551;52.206;4.856;2023-04-16T23:55:13;34.20;;;14.45;;
